sensor_id;sensor_type;location;lat;lon;timestamp;temperature;humidity
68177;DHT22;56478;50.982;7.032;2023-02-27T00:00:47;0.87;69.04
68177;DHT22;56478;50.982;7.032;2023-02-27T00:03:13;0.83;69.08
68177;DHT22;56478;50.982;7.032;2023-02-27T00:05:40;0.84;68.95
68177;DHT22;56478;50.982;7.032;2023-02-27T00:08:06;0.81;68.78
68177;DHT22;56478;50.982;7.032;2023-02-27T00:10:31;0.81;69.53
68177;DHT22;56478;50.982;7.032;2023-02-27T00:12:57;0.83;69.91
68177;DHT22;56478;50.982;7.032;2023-02-27T00:15:22;0.83;69.53
68177;DHT22;56478;50.982;7.032;2023-02-27T00:17:49;0.84;69.34
68177;DHT22;56478;50.982;7.032;2023-02-27T00:20:16;0.84;69.21
68177;DHT22;56478;50.982;7.032;2023-02-27T00:22:43;0.73;69.27
68177;DHT22;56478;50.982;7.032;2023-02-27T00:25:10;0.76;69.65
68177;DHT22;56478;50.982;7.032;2023-02-27T00:27:36;0.73;69.85
68177;DHT22;56478;50.982;7.032;2023-02-27T00:30:03;0.77;69.90
68177;DHT22;56478;50.982;7.032;2023-02-27T00:32:29;0.79;69.41
68177;DHT22;56478;50.982;7.032;2023-02-27T00:34:55;0.72;69.43
68177;DHT22;56478;50.982;7.032;2023-02-27T00:37:20;0.68;69.90
68177;DHT22;56478;50.982;7.032;2023-02-27T00:39:46;0.63;70.17
68177;DHT22;56478;50.982;7.032;2023-02-27T00:42:11;0.63;70.10
68177;DHT22;56478;50.982;7.032;2023-02-27T00:44:37;0.66;69.91
68177;DHT22;56478;50.982;7.032;2023-02-27T00:47:03;0.65;70.51
68177;DHT22;56478;50.982;7.032;2023-02-27T00:49:28;0.65;70.51
68177;DHT22;56478;50.982;7.032;2023-02-27T00:51:54;0.66;71.12
68177;DHT22;56478;50.982;7.032;2023-02-27T00:54:19;0.68;70.92
68177;DHT22;56478;50.982;7.032;2023-02-27T00:56:45;0.65;70.76
68177;DHT22;56478;50.982;7.032;2023-02-27T00:59:10;0.61;71.13
68177;DHT22;56478;50.982;7.032;2023-02-27T01:01:36;0.58;71.11
68177;DHT22;56478;50.982;7.032;2023-02-27T01:04:02;0.65;70.64
68177;DHT22;56478;50.982;7.032;2023-02-27T01:06:27;0.65;70.50
68177;DHT22;56478;50.982;7.032;2023-02-27T01:08:53;0.61;70.59
68177;DHT22;56478;50.982;7.032;2023-02-27T01:11:20;0.51;70.60
68177;DHT22;56478;50.982;7.032;2023-02-27T01:13:46;0.52;70.68
68177;DHT22;56478;50.982;7.032;2023-02-27T01:16:12;0.51;70.69
68177;DHT22;56478;50.982;7.032;2023-02-27T01:18:37;0.52;70.63
68177;DHT22;56478;50.982;7.032;2023-02-27T01:21:03;0.48;70.73
68177;DHT22;56478;50.982;7.032;2023-02-27T01:23:29;0.46;70.74
68177;DHT22;56478;50.982;7.032;2023-02-27T01:25:55;0.55;70.64
68177;DHT22;56478;50.982;7.032;2023-02-27T01:28:20;0.46;71.10
68177;DHT22;56478;50.982;7.032;2023-02-27T01:30:46;0.45;71.17
68177;DHT22;56478;50.982;7.032;2023-02-27T01:33:12;0.45;71.55
68177;DHT22;56478;50.982;7.032;2023-02-27T01:35:38;0.42;71.35
68177;DHT22;56478;50.982;7.032;2023-02-27T01:38:04;0.42;71.60
68177;DHT22;56478;50.982;7.032;2023-02-27T01:40:34;0.45;71.36
68177;DHT22;56478;50.982;7.032;2023-02-27T01:43:00;0.44;72.12
68177;DHT22;56478;50.982;7.032;2023-02-27T01:50:53;0.40;71.83
68177;DHT22;56478;50.982;7.032;2023-02-27T01:53:20;0.38;71.77
68177;DHT22;56478;50.982;7.032;2023-02-27T01:55:52;0.35;71.66
68177;DHT22;56478;50.982;7.032;2023-02-27T01:58:18;0.35;71.84
68177;DHT22;56478;50.982;7.032;2023-02-27T02:00:44;0.34;71.82
68177;DHT22;56478;50.982;7.032;2023-02-27T02:03:32;0.35;72.20
68177;DHT22;56478;50.982;7.032;2023-02-27T02:05:59;0.32;71.87
68177;DHT22;56478;50.982;7.032;2023-02-27T02:08:28;0.34;72.13
68177;DHT22;56478;50.982;7.032;2023-02-27T02:10:56;0.29;72.12
68177;DHT22;56478;50.982;7.032;2023-02-27T02:13:23;0.34;72.30
68177;DHT22;56478;50.982;7.032;2023-02-27T02:22:33;0.29;72.16
68177;DHT22;56478;50.982;7.032;2023-02-27T02:30:30;0.20;72.68
68177;DHT22;56478;50.982;7.032;2023-02-27T02:36:06;0.11;72.51
68177;DHT22;56478;50.982;7.032;2023-02-27T02:38:51;0.10;72.54
68177;DHT22;56478;50.982;7.032;2023-02-27T02:46:46;0.20;72.49
68177;DHT22;56478;50.982;7.032;2023-02-27T02:51:56;0.18;72.78
68177;DHT22;56478;50.982;7.032;2023-02-27T02:55:08;0.11;72.55
68177;DHT22;56478;50.982;7.032;2023-02-27T03:00:30;0.09;72.40
68177;DHT22;56478;50.982;7.032;2023-02-27T03:03:04;-0.03;73.01
68177;DHT22;56478;50.982;7.032;2023-02-27T03:05:37;-0.10;73.55
68177;DHT22;56478;50.982;7.032;2023-02-27T03:08:08;-0.08;73.66
68177;DHT22;56478;50.982;7.032;2023-02-27T03:13:34;-0.10;73.33
68177;DHT22;56478;50.982;7.032;2023-02-27T03:18:36;-0.11;73.31
68177;DHT22;56478;50.982;7.032;2023-02-27T03:21:12;-0.13;72.98
68177;DHT22;56478;50.982;7.032;2023-02-27T03:23:45;-0.15;73.20
68177;DHT22;56478;50.982;7.032;2023-02-27T03:26:19;-0.22;73.31
68177;DHT22;56478;50.982;7.032;2023-02-27T03:29:03;-0.22;73.65
68177;DHT22;56478;50.982;7.032;2023-02-27T03:31:39;-0.19;74.01
68177;DHT22;56478;50.982;7.032;2023-02-27T03:34:12;-0.22;74.21
68177;DHT22;56478;50.982;7.032;2023-02-27T03:36:47;-0.15;73.48
68177;DHT22;56478;50.982;7.032;2023-02-27T03:42:23;-0.21;73.77
68177;DHT22;56478;50.982;7.032;2023-02-27T03:47:28;-0.29;73.80
68177;DHT22;56478;50.982;7.032;2023-02-27T03:49:55;-0.32;73.66
68177;DHT22;56478;50.982;7.032;2023-02-27T03:52:21;-0.38;73.88
68177;DHT22;56478;50.982;7.032;2023-02-27T03:55:02;-0.38;73.64
68177;DHT22;56478;50.982;7.032;2023-02-27T03:57:29;-0.39;73.66
68177;DHT22;56478;50.982;7.032;2023-02-27T03:59:56;-0.45;73.90
68177;DHT22;56478;50.982;7.032;2023-02-27T04:02:22;-0.28;74.12
68177;DHT22;56478;50.982;7.032;2023-02-27T04:04:48;-0.35;74.47
68177;DHT22;56478;50.982;7.032;2023-02-27T04:25:00;-0.63;74.57
68177;DHT22;56478;50.982;7.032;2023-02-27T04:30:14;-0.62;74.68
68177;DHT22;56478;50.982;7.032;2023-02-27T04:36:36;-0.59;74.42
68177;DHT22;56478;50.982;7.032;2023-02-27T04:39:10;-0.59;74.62
68177;DHT22;56478;50.982;7.032;2023-02-27T04:44:21;-0.68;75.27
68177;DHT22;56478;50.982;7.032;2023-02-27T04:46:48;-0.74;74.99
68177;DHT22;56478;50.982;7.032;2023-02-27T04:49:19;-0.66;74.77
68177;DHT22;56478;50.982;7.032;2023-02-27T04:51:51;-0.76;75.22
68177;DHT22;56478;50.982;7.032;2023-02-27T04:54:26;-0.77;75.19
68177;DHT22;56478;50.982;7.032;2023-02-27T04:56:56;-0.72;75.18
68177;DHT22;56478;50.982;7.032;2023-02-27T04:59:30;-0.76;75.52
68177;DHT22;56478;50.982;7.032;2023-02-27T05:02:04;-0.73;75.27
68177;DHT22;56478;50.982;7.032;2023-02-27T05:04:36;-0.74;75.71
68177;DHT22;56478;50.982;7.032;2023-02-27T05:07:04;-0.76;75.34
68177;DHT22;56478;50.982;7.032;2023-02-27T05:09:48;-0.76;75.27
68177;DHT22;56478;50.982;7.032;2023-02-27T05:12:23;-0.79;75.82
68177;DHT22;56478;50.982;7.032;2023-02-27T05:15:15;-0.84;75.70
68177;DHT22;56478;50.982;7.032;2023-02-27T05:17:58;-0.79;75.72
68177;DHT22;56478;50.982;7.032;2023-02-27T05:20:50;-0.76;75.92
68177;DHT22;56478;50.982;7.032;2023-02-27T05:23:57;-0.72;75.75
68177;DHT22;56478;50.982;7.032;2023-02-27T05:26:22;-0.77;75.59
68177;DHT22;56478;50.982;7.032;2023-02-27T05:29:01;-0.74;75.84
68177;DHT22;56478;50.982;7.032;2023-02-27T05:31:44;-0.74;75.64
68177;DHT22;56478;50.982;7.032;2023-02-27T05:34:17;-0.88;75.09
68177;DHT22;56478;50.982;7.032;2023-02-27T05:36:59;-0.86;75.30
68177;DHT22;56478;50.982;7.032;2023-02-27T05:39:27;-1.00;75.40
68177;DHT22;56478;50.982;7.032;2023-02-27T05:42:24;-1.01;75.12
68177;DHT22;56478;50.982;7.032;2023-02-27T05:44:52;-0.97;75.52
68177;DHT22;56478;50.982;7.032;2023-02-27T05:47:22;-0.90;75.61
68177;DHT22;56478;50.982;7.032;2023-02-27T05:50:28;-0.90;75.48
68177;DHT22;56478;50.982;7.032;2023-02-27T05:52:48;-0.94;75.44
68177;DHT22;56478;50.982;7.032;2023-02-27T05:55:19;-0.90;75.13
68177;DHT22;56478;50.982;7.032;2023-02-27T05:57:51;-0.91;75.13
68177;DHT22;56478;50.982;7.032;2023-02-27T06:00:46;-0.98;75.32
68177;DHT22;56478;50.982;7.032;2023-02-27T06:03:11;-0.97;75.67
68177;DHT22;56478;50.982;7.032;2023-02-27T06:05:40;-0.98;75.07
68177;DHT22;56478;50.982;7.032;2023-02-27T06:08:06;-1.05;75.02
68177;DHT22;56478;50.982;7.032;2023-02-27T06:10:32;-1.07;74.97
68177;DHT22;56478;50.982;7.032;2023-02-27T06:12:58;-1.07;75.19
68177;DHT22;56478;50.982;7.032;2023-02-27T06:15:24;-0.97;75.29
68177;DHT22;56478;50.982;7.032;2023-02-27T06:17:49;-1.05;74.71
68177;DHT22;56478;50.982;7.032;2023-02-27T06:20:15;-1.14;76.09
68177;DHT22;56478;50.982;7.032;2023-02-27T06:22:41;-1.04;75.41
68177;DHT22;56478;50.982;7.032;2023-02-27T06:25:07;-1.04;75.93
68177;DHT22;56478;50.982;7.032;2023-02-27T06:27:32;-1.04;75.67
68177;DHT22;56478;50.982;7.032;2023-02-27T06:29:58;-0.98;75.43
68177;DHT22;56478;50.982;7.032;2023-02-27T06:32:24;-1.00;74.93
68177;DHT22;56478;50.982;7.032;2023-02-27T06:34:51;-0.96;75.14
68177;DHT22;56478;50.982;7.032;2023-02-27T06:37:17;-0.93;75.27
68177;DHT22;56478;50.982;7.032;2023-02-27T06:39:42;-0.96;74.98
68177;DHT22;56478;50.982;7.032;2023-02-27T06:42:08;-0.90;75.19
68177;DHT22;56478;50.982;7.032;2023-02-27T06:44:34;-0.84;74.50
68177;DHT22;56478;50.982;7.032;2023-02-27T06:46:59;-0.87;75.16
68177;DHT22;56478;50.982;7.032;2023-02-27T06:49:25;-0.90;75.29
68177;DHT22;56478;50.982;7.032;2023-02-27T06:51:50;-0.87;75.49
68177;DHT22;56478;50.982;7.032;2023-02-27T06:54:16;-0.84;75.76
68177;DHT22;56478;50.982;7.032;2023-02-27T06:56:42;-0.79;75.55
68177;DHT22;56478;50.982;7.032;2023-02-27T06:59:07;-0.72;74.91
68177;DHT22;56478;50.982;7.032;2023-02-27T07:01:33;-0.63;74.77
68177;DHT22;56478;50.982;7.032;2023-02-27T07:03:59;-0.51;74.74
68177;DHT22;56478;50.982;7.032;2023-02-27T07:06:25;-0.49;74.58
68177;DHT22;56478;50.982;7.032;2023-02-27T07:08:51;-0.46;75.29
68177;DHT22;56478;50.982;7.032;2023-02-27T07:11:17;-0.38;74.50
68177;DHT22;56478;50.982;7.032;2023-02-27T07:13:42;-0.32;74.23
68177;DHT22;56478;50.982;7.032;2023-02-27T07:16:08;-0.27;74.28
68177;DHT22;56478;50.982;7.032;2023-02-27T07:18:33;-0.18;74.87
68177;DHT22;56478;50.982;7.032;2023-02-27T07:20:59;-0.07;75.08
68177;DHT22;56478;50.982;7.032;2023-02-27T07:23:24;0.68;72.61
68177;DHT22;56478;50.982;7.032;2023-02-27T07:25:50;1.08;70.69
68177;DHT22;56478;50.982;7.032;2023-02-27T07:28:16;1.42;70.01
68177;DHT22;56478;50.982;7.032;2023-02-27T07:30:42;1.71;70.13
68177;DHT22;56478;50.982;7.032;2023-02-27T07:33:08;2.18;67.77
68177;DHT22;56478;50.982;7.032;2023-02-27T07:35:33;2.53;66.26
68177;DHT22;56478;50.982;7.032;2023-02-27T07:37:59;2.58;66.18
68177;DHT22;56478;50.982;7.032;2023-02-27T07:40:24;2.47;67.04
68177;DHT22;56478;50.982;7.032;2023-02-27T07:42:50;2.72;65.76
68177;DHT22;56478;50.982;7.032;2023-02-27T07:45:16;3.28;63.87
68177;DHT22;56478;50.982;7.032;2023-02-27T07:47:45;3.64;62.82
68177;DHT22;56478;50.982;7.032;2023-02-27T07:50:11;4.97;59.66
68177;DHT22;56478;50.982;7.032;2023-02-27T07:52:40;6.40;55.44
68177;DHT22;56478;50.982;7.032;2023-02-27T07:55:06;7.56;52.13
68177;DHT22;56478;50.982;7.032;2023-02-27T07:57:32;8.63;48.29
68177;DHT22;56478;50.982;7.032;2023-02-27T07:59:58;9.83;45.22
68177;DHT22;56478;50.982;7.032;2023-02-27T08:02:24;10.15;44.08
68177;DHT22;56478;50.982;7.032;2023-02-27T08:04:50;10.74;43.06
68177;DHT22;56478;50.982;7.032;2023-02-27T08:07:16;12.01;40.07
68177;DHT22;56478;50.982;7.032;2023-02-27T08:09:41;12.21;38.83
68177;DHT22;56478;50.982;7.032;2023-02-27T08:12:07;12.42;38.41
68177;DHT22;56478;50.982;7.032;2023-02-27T08:14:32;12.84;37.14
68177;DHT22;56478;50.982;7.032;2023-02-27T08:16:58;13.86;35.60
68177;DHT22;56478;50.982;7.032;2023-02-27T08:19:25;13.91;34.55
68177;DHT22;56478;50.982;7.032;2023-02-27T08:21:50;13.35;35.44
68177;DHT22;56478;50.982;7.032;2023-02-27T08:24:16;13.71;35.32
68177;DHT22;56478;50.982;7.032;2023-02-27T08:26:41;13.86;34.10
68177;DHT22;56478;50.982;7.032;2023-02-27T08:29:07;14.75;32.58
68177;DHT22;56478;50.982;7.032;2023-02-27T08:31:38;15.26;32.09
68177;DHT22;56478;50.982;7.032;2023-02-27T08:34:04;14.95;31.51
68177;DHT22;56478;50.982;7.032;2023-02-27T08:36:30;17.09;28.62
68177;DHT22;56478;50.982;7.032;2023-02-27T08:38:56;16.50;28.90
68177;DHT22;56478;50.982;7.032;2023-02-27T08:41:22;16.86;28.22
68177;DHT22;56478;50.982;7.032;2023-02-27T08:43:48;16.80;28.53
68177;DHT22;56478;50.982;7.032;2023-02-27T08:46:14;16.08;29.52
68177;DHT22;56478;50.982;7.032;2023-02-27T08:48:39;15.22;30.40
68177;DHT22;56478;50.982;7.032;2023-02-27T08:51:07;15.88;29.71
68177;DHT22;56478;50.982;7.032;2023-02-27T08:53:33;16.57;28.35
68177;DHT22;56478;50.982;7.032;2023-02-27T08:55:59;16.27;29.29
68177;DHT22;56478;50.982;7.032;2023-02-27T08:58:24;15.85;29.88
68177;DHT22;56478;50.982;7.032;2023-02-27T09:00:50;16.14;29.49
68177;DHT22;56478;50.982;7.032;2023-02-27T09:03:16;16.93;28.59
68177;DHT22;56478;50.982;7.032;2023-02-27T09:05:41;17.03;27.94
68177;DHT22;56478;50.982;7.032;2023-02-27T09:08:07;17.65;26.57
68177;DHT22;56478;50.982;7.032;2023-02-27T09:10:32;17.54;26.76
68177;DHT22;56478;50.982;7.032;2023-02-27T09:12:59;18.21;26.77
68177;DHT22;56478;50.982;7.032;2023-02-27T09:15:25;18.23;26.50
68177;DHT22;56478;50.982;7.032;2023-02-27T09:17:51;18.07;26.42
68177;DHT22;56478;50.982;7.032;2023-02-27T09:20:18;18.51;25.91
68177;DHT22;56478;50.982;7.032;2023-02-27T09:22:44;18.20;27.39
68177;DHT22;56478;50.982;7.032;2023-02-27T09:25:09;18.06;26.54
68177;DHT22;56478;50.982;7.032;2023-02-27T09:27:35;20.45;23.10
68177;DHT22;56478;50.982;7.032;2023-02-27T09:30:00;19.23;24.51
68177;DHT22;56478;50.982;7.032;2023-02-27T09:32:26;18.93;25.41
68177;DHT22;56478;50.982;7.032;2023-02-27T09:34:52;18.28;26.10
68177;DHT22;56478;50.982;7.032;2023-02-27T09:37:17;18.93;25.00
68177;DHT22;56478;50.982;7.032;2023-02-27T09:39:46;18.92;25.16
68177;DHT22;56478;50.982;7.032;2023-02-27T09:42:20;18.28;26.17
68177;DHT22;56478;50.982;7.032;2023-02-27T09:44:49;18.41;26.06
68177;DHT22;56478;50.982;7.032;2023-02-27T09:47:34;19.15;25.19
68177;DHT22;56478;50.982;7.032;2023-02-27T09:52:50;18.66;24.59
68177;DHT22;56478;50.982;7.032;2023-02-27T09:55:20;19.35;24.43
68177;DHT22;56478;50.982;7.032;2023-02-27T09:58:04;19.90;23.89
68177;DHT22;56478;50.982;7.032;2023-02-27T10:06:26;20.75;21.51
68177;DHT22;56478;50.982;7.032;2023-02-27T10:11:56;19.34;24.14
68177;DHT22;56478;50.982;7.032;2023-02-27T10:14:42;18.37;23.87
68177;DHT22;56478;50.982;7.032;2023-02-27T10:17:40;19.41;23.67
68177;DHT22;56478;50.982;7.032;2023-02-27T10:20:09;19.92;23.08
68177;DHT22;56478;50.982;7.032;2023-02-27T10:22:42;20.10;22.11
68177;DHT22;56478;50.982;7.032;2023-02-27T10:25:14;20.53;21.82
68177;DHT22;56478;50.982;7.032;2023-02-27T10:27:40;19.80;22.92
68177;DHT22;56478;50.982;7.032;2023-02-27T10:30:23;19.98;22.73
68177;DHT22;56478;50.982;7.032;2023-02-27T10:32:53;19.55;23.51
68177;DHT22;56478;50.982;7.032;2023-02-27T10:35:32;19.41;24.37
68177;DHT22;56478;50.982;7.032;2023-02-27T10:38:17;19.08;24.17
68177;DHT22;56478;50.982;7.032;2023-02-27T10:40:44;18.85;24.23
68177;DHT22;56478;50.982;7.032;2023-02-27T10:43:14;19.06;23.48
68177;DHT22;56478;50.982;7.032;2023-02-27T10:45:40;19.87;22.90
68177;DHT22;56478;50.982;7.032;2023-02-27T10:48:08;19.75;22.11
68177;DHT22;56478;50.982;7.032;2023-02-27T10:50:37;18.95;24.06
68177;DHT22;56478;50.982;7.032;2023-02-27T10:53:15;18.26;24.13
68177;DHT22;56478;50.982;7.032;2023-02-27T10:55:44;17.72;25.22
68177;DHT22;56478;50.982;7.032;2023-02-27T10:58:17;16.48;26.72
68177;DHT22;56478;50.982;7.032;2023-02-27T11:00:53;15.57;28.45
68177;DHT22;56478;50.982;7.032;2023-02-27T11:03:26;14.60;29.78
68177;DHT22;56478;50.982;7.032;2023-02-27T11:06:03;14.48;28.90
68177;DHT22;56478;50.982;7.032;2023-02-27T11:08:30;14.13;28.48
68177;DHT22;56478;50.982;7.032;2023-02-27T11:11:02;13.81;30.66
68177;DHT22;56478;50.982;7.032;2023-02-27T11:13:31;14.02;30.73
68177;DHT22;56478;50.982;7.032;2023-02-27T11:18:27;13.44;31.46
68177;DHT22;56478;50.982;7.032;2023-02-27T11:23:33;13.60;31.11
68177;DHT22;56478;50.982;7.032;2023-02-27T11:26:14;12.80;31.97
68177;DHT22;56478;50.982;7.032;2023-02-27T11:28:41;12.05;33.70
68177;DHT22;56478;50.982;7.032;2023-02-27T11:31:15;12.46;32.16
68177;DHT22;56478;50.982;7.032;2023-02-27T11:33:52;12.34;34.60
68177;DHT22;56478;50.982;7.032;2023-02-27T11:36:18;12.40;33.23
68177;DHT22;56478;50.982;7.032;2023-02-27T11:38:50;11.87;33.39
68177;DHT22;56478;50.982;7.032;2023-02-27T11:41:17;12.14;32.86
68177;DHT22;56478;50.982;7.032;2023-02-27T11:43:51;12.23;32.17
68177;DHT22;56478;50.982;7.032;2023-02-27T11:46:21;12.23;33.70
68177;DHT22;56478;50.982;7.032;2023-02-27T12:02:14;12.14;33.26
68177;DHT22;56478;50.982;7.032;2023-02-27T12:10:20;12.34;32.37
68177;DHT22;56478;50.982;7.032;2023-02-27T12:21:03;12.02;33.25
68177;DHT22;56478;50.982;7.032;2023-02-27T12:26:20;11.47;34.41
68177;DHT22;56478;50.982;7.032;2023-02-27T12:28:57;11.44;35.44
68177;DHT22;56478;50.982;7.032;2023-02-27T12:37:04;11.77;34.96
68177;DHT22;56478;50.982;7.032;2023-02-27T12:39:33;11.78;33.38
68177;DHT22;56478;50.982;7.032;2023-02-27T12:56:16;11.20;33.86
68177;DHT22;56478;50.982;7.032;2023-02-27T13:04:36;11.32;34.41
68177;DHT22;56478;50.982;7.032;2023-02-27T13:07:08;11.42;34.71
68177;DHT22;56478;50.982;7.032;2023-02-27T13:09:44;11.40;35.82
68177;DHT22;56478;50.982;7.032;2023-02-27T13:12:22;11.37;33.30
68177;DHT22;56478;50.982;7.032;2023-02-27T13:14:58;10.87;35.00
68177;DHT22;56478;50.982;7.032;2023-02-27T13:17:31;10.76;34.95
68177;DHT22;56478;50.982;7.032;2023-02-27T13:23:12;10.35;34.82
68177;DHT22;56478;50.982;7.032;2023-02-27T13:25:27;10.09;35.61
68177;DHT22;56478;50.982;7.032;2023-02-27T13:27:58;10.15;36.23
68177;DHT22;56478;50.982;7.032;2023-02-27T13:30:34;10.46;36.41
68177;DHT22;56478;50.982;7.032;2023-02-27T13:33:25;10.23;35.11
68177;DHT22;56478;50.982;7.032;2023-02-27T13:36:08;10.40;36.25
68177;DHT22;56478;50.982;7.032;2023-02-27T13:43:58;10.39;36.17
68177;DHT22;56478;50.982;7.032;2023-02-27T13:46:28;10.28;35.69
68177;DHT22;56478;50.982;7.032;2023-02-27T13:49:19;10.29;35.33
68177;DHT22;56478;50.982;7.032;2023-02-27T13:51:47;10.26;35.34
68177;DHT22;56478;50.982;7.032;2023-02-27T13:59:23;9.88;35.44
68177;DHT22;56478;50.982;7.032;2023-02-27T14:04:17;9.80;35.77
68177;DHT22;56478;50.982;7.032;2023-02-27T14:06:45;9.42;35.55
68177;DHT22;56478;50.982;7.032;2023-02-27T14:09:15;9.29;36.71
68177;DHT22;56478;50.982;7.032;2023-02-27T14:11:53;9.54;38.01
68177;DHT22;56478;50.982;7.032;2023-02-27T14:14:44;9.53;36.84
68177;DHT22;56478;50.982;7.032;2023-02-27T14:17:12;9.73;37.05
68177;DHT22;56478;50.982;7.032;2023-02-27T14:24:46;9.99;37.46
68177;DHT22;56478;50.982;7.032;2023-02-27T14:27:43;9.59;38.25
68177;DHT22;56478;50.982;7.032;2023-02-27T14:32:59;9.43;37.11
68177;DHT22;56478;50.982;7.032;2023-02-27T14:35:28;9.10;38.39
68177;DHT22;56478;50.982;7.032;2023-02-27T14:37:54;8.92;40.05
68177;DHT22;56478;50.982;7.032;2023-02-27T14:40:25;8.81;40.41
68177;DHT22;56478;50.982;7.032;2023-02-27T14:43:13;8.92;39.81
68177;DHT22;56478;50.982;7.032;2023-02-27T14:45:37;9.17;40.79
68177;DHT22;56478;50.982;7.032;2023-02-27T14:48:07;9.34;39.36
68177;DHT22;56478;50.982;7.032;2023-02-27T14:50:35;9.15;40.04
68177;DHT22;56478;50.982;7.032;2023-02-27T14:53:03;9.14;41.49
68177;DHT22;56478;50.982;7.032;2023-02-27T14:55:31;9.12;41.64
68177;DHT22;56478;50.982;7.032;2023-02-27T14:58:13;8.91;43.75
68177;DHT22;56478;50.982;7.032;2023-02-27T15:00:45;8.90;42.71
68177;DHT22;56478;50.982;7.032;2023-02-27T15:03:22;8.83;44.44
68177;DHT22;56478;50.982;7.032;2023-02-27T15:05:52;8.66;43.04
68177;DHT22;56478;50.982;7.032;2023-02-27T15:08:20;8.73;42.95
68177;DHT22;56478;50.982;7.032;2023-02-27T15:10:49;8.84;43.11
68177;DHT22;56478;50.982;7.032;2023-02-27T15:13:25;8.94;42.41
68177;DHT22;56478;50.982;7.032;2023-02-27T15:19:05;8.72;42.60
68177;DHT22;56478;50.982;7.032;2023-02-27T15:21:43;8.48;43.14
68177;DHT22;56478;50.982;7.032;2023-02-27T15:24:41;8.15;43.90
68177;DHT22;56478;50.982;7.032;2023-02-27T15:27:13;8.21;43.50
68177;DHT22;56478;50.982;7.032;2023-02-27T15:29:43;8.14;42.83
68177;DHT22;56478;50.982;7.032;2023-02-27T15:32:37;8.20;43.74
68177;DHT22;56478;50.982;7.032;2023-02-27T15:37:37;8.07;42.92
68177;DHT22;56478;50.982;7.032;2023-02-27T15:40:04;8.15;42.77
68177;DHT22;56478;50.982;7.032;2023-02-27T15:42:32;8.11;44.07
68177;DHT22;56478;50.982;7.032;2023-02-27T15:45:01;8.20;43.64
68177;DHT22;56478;50.982;7.032;2023-02-27T15:47:31;8.03;42.49
68177;DHT22;56478;50.982;7.032;2023-02-27T15:50:05;7.96;43.08
68177;DHT22;56478;50.982;7.032;2023-02-27T15:52:41;7.96;44.41
68177;DHT22;56478;50.982;7.032;2023-02-27T15:55:13;7.82;42.96
68177;DHT22;56478;50.982;7.032;2023-02-27T15:57:40;7.82;44.39
68177;DHT22;56478;50.982;7.032;2023-02-27T16:00:07;7.83;42.28
68177;DHT22;56478;50.982;7.032;2023-02-27T16:02:42;7.69;43.47
68177;DHT22;56478;50.982;7.032;2023-02-27T16:05:34;7.66;43.36
68177;DHT22;56478;50.982;7.032;2023-02-27T16:08:01;7.49;43.65
68177;DHT22;56478;50.982;7.032;2023-02-27T16:10:38;7.45;44.35
68177;DHT22;56478;50.982;7.032;2023-02-27T16:16:03;7.25;45.62
68177;DHT22;56478;50.982;7.032;2023-02-27T16:18:35;7.27;44.06
68177;DHT22;56478;50.982;7.032;2023-02-27T16:21:13;7.24;48.08
68177;DHT22;56478;50.982;7.032;2023-02-27T16:23:40;7.18;44.32
68177;DHT22;56478;50.982;7.032;2023-02-27T16:33:52;6.71;46.24
68177;DHT22;56478;50.982;7.032;2023-02-27T16:36:26;6.68;47.57
68177;DHT22;56478;50.982;7.032;2023-02-27T16:38:52;6.72;46.26
68177;DHT22;56478;50.982;7.032;2023-02-27T16:41:19;6.61;46.15
68177;DHT22;56478;50.982;7.032;2023-02-27T16:43:46;6.55;47.47
68177;DHT22;56478;50.982;7.032;2023-02-27T16:46:13;6.52;45.56
68177;DHT22;56478;50.982;7.032;2023-02-27T16:48:45;6.37;47.10
68177;DHT22;56478;50.982;7.032;2023-02-27T16:51:17;6.35;47.91
68177;DHT22;56478;50.982;7.032;2023-02-27T16:53:45;6.31;46.72
68177;DHT22;56478;50.982;7.032;2023-02-27T16:56:11;6.30;47.17
68177;DHT22;56478;50.982;7.032;2023-02-27T16:58:37;6.31;48.98
68177;DHT22;56478;50.982;7.032;2023-02-27T17:01:03;6.33;48.29
68177;DHT22;56478;50.982;7.032;2023-02-27T17:03:29;6.38;48.70
68177;DHT22;56478;50.982;7.032;2023-02-27T17:05:56;6.30;48.83
68177;DHT22;56478;50.982;7.032;2023-02-27T17:08:22;6.24;47.50
68177;DHT22;56478;50.982;7.032;2023-02-27T17:10:48;6.26;50.61
68177;DHT22;56478;50.982;7.032;2023-02-27T17:13:14;6.20;48.35
68177;DHT22;56478;50.982;7.032;2023-02-27T17:15:39;6.16;48.08
68177;DHT22;56478;50.982;7.032;2023-02-27T17:18:05;6.06;47.45
68177;DHT22;56478;50.982;7.032;2023-02-27T17:20:31;5.92;47.81
68177;DHT22;56478;50.982;7.032;2023-02-27T17:22:57;5.82;48.35
68177;DHT22;56478;50.982;7.032;2023-02-27T17:25:22;5.65;49.11
68177;DHT22;56478;50.982;7.032;2023-02-27T17:27:50;5.64;49.07
68177;DHT22;56478;50.982;7.032;2023-02-27T17:30:16;5.58;48.58
68177;DHT22;56478;50.982;7.032;2023-02-27T17:32:42;5.66;48.59
68177;DHT22;56478;50.982;7.032;2023-02-27T17:35:08;5.62;48.94
68177;DHT22;56478;50.982;7.032;2023-02-27T17:37:33;5.50;49.12
68177;DHT22;56478;50.982;7.032;2023-02-27T17:39:59;5.51;49.38
68177;DHT22;56478;50.982;7.032;2023-02-27T17:42:28;5.54;50.20
68177;DHT22;56478;50.982;7.032;2023-02-27T17:44:54;5.52;49.16
68177;DHT22;56478;50.982;7.032;2023-02-27T17:47:19;5.52;49.03
68177;DHT22;56478;50.982;7.032;2023-02-27T17:49:45;5.46;49.49
68177;DHT22;56478;50.982;7.032;2023-02-27T17:52:10;5.52;49.70
68177;DHT22;56478;50.982;7.032;2023-02-27T17:54:36;5.58;51.45
68177;DHT22;56478;50.982;7.032;2023-02-27T17:57:02;5.59;49.76
68177;DHT22;56478;50.982;7.032;2023-02-27T17:59:29;5.68;51.79
68177;DHT22;56478;50.982;7.032;2023-02-27T18:01:56;5.64;52.05
68177;DHT22;56478;50.982;7.032;2023-02-27T18:04:21;5.69;51.91
68177;DHT22;56478;50.982;7.032;2023-02-27T18:06:47;5.69;52.05
68177;DHT22;56478;50.982;7.032;2023-02-27T18:09:14;5.69;52.82
68177;DHT22;56478;50.982;7.032;2023-02-27T18:11:40;5.72;51.88
68177;DHT22;56478;50.982;7.032;2023-02-27T18:14:06;5.65;52.55
68177;DHT22;56478;50.982;7.032;2023-02-27T18:16:32;5.66;51.80
68177;DHT22;56478;50.982;7.032;2023-02-27T18:19:04;5.65;52.86
68177;DHT22;56478;50.982;7.032;2023-02-27T18:21:30;5.55;53.32
68177;DHT22;56478;50.982;7.032;2023-02-27T18:23:56;5.50;53.65
68177;DHT22;56478;50.982;7.032;2023-02-27T18:26:24;5.51;53.00
68177;DHT22;56478;50.982;7.032;2023-02-27T18:28:50;5.47;53.50
68177;DHT22;56478;50.982;7.032;2023-02-27T18:31:21;5.40;53.38
68177;DHT22;56478;50.982;7.032;2023-02-27T18:33:48;5.37;53.81
68177;DHT22;56478;50.982;7.032;2023-02-27T18:36:14;5.30;53.49
68177;DHT22;56478;50.982;7.032;2023-02-27T18:38:41;5.24;54.02
68177;DHT22;56478;50.982;7.032;2023-02-27T18:41:07;5.12;54.56
68177;DHT22;56478;50.982;7.032;2023-02-27T18:43:34;5.09;54.44
68177;DHT22;56478;50.982;7.032;2023-02-27T18:46:01;4.97;54.49
68177;DHT22;56478;50.982;7.032;2023-02-27T18:48:27;4.92;54.75
68177;DHT22;56478;50.982;7.032;2023-02-27T18:50:58;4.86;54.72
68177;DHT22;56478;50.982;7.032;2023-02-27T18:53:24;4.81;55.62
68177;DHT22;56478;50.982;7.032;2023-02-27T18:55:49;4.75;55.76